EHRDEGSH

Guest
Details From EHRD - Rotterdam The Hague
To EGSH - Norwich
Flight Number -
Tags generated
Created
Modified
Stats Distance 124 nm / 229 km
Max Altitude 10,200 ft / 3,109 m
Waypoints 3
Social Downloads 0
Likes 0
Share VATSIM

Download

Looking for another format? Having issues loading an existing format? Contact us
Advertisement - Login to hide

Notes

Basic altitude profile: - Ascent Rate: 2500ft/min - Ascent Speed: 250kts - Cruise Altitude: 35000ft - Cruise Speed: 420kts - Descent Rate: 1500ft/min - Descent Speed: 250kts Options: - Use NATs: yes - Use PACOTS: yes - Use low airways: yes - Use high airways: yes

Route

EHRD CSL47 EGSH

ID Type Via Altitude Latitude Longitude Leg Dist Tot Dist Heading (true) Name
O EHRD APT - 0 ft / 0 m 51.95747˚ 4.44166˚ - 0 nm - Rotterdam The Hague
CSL47 FIX - 10,200 ft / 3,109 m 52.39472˚ 2.50250˚ 76 nm 76 nm 291° / 289° -
O EGSH APT - 0 ft / 0 m 52.67686˚ 1.28449˚ 47 nm 123 nm 291° / 290° Norwich

Altitude Profile

Advertisement - Login to hide

EHRD

Details ICAO EHRD (RTM)
Name Rotterdam The Hague
Region Netherlands
Timezone Europe/Amsterdam (UTC+1.0)
Stats Elevation -15 ft / -5 m (AMSL)
Location 51.957468° 4.441662°
Runways 1
Magnetic Variation 1.049° E

METAR

EHRD 180125Z AUTO 34013KT 290V010 9000 -RA SCT009 BKN010 FEW015CB BKN019 08/07 Q1015 RERA REDZ BECMG SCT020 TEMPO 7000 -SHRA

Decode

TAF

TAF EHRD 172316Z 1800/1906 21015KT 4000 RADZ SCT004 BKN005 BECMG 1800/1802 34017KT 9999 NSW SCT020 PROB30 TEMPO 1800/1801 2000 DZRA SCT003 BKN004 PROB30 TEMPO 1801/1810 7000 -SHRA SCT020TCU BECMG 1804/1807 35012KT BECMG 1815/1818 34006KT

Decode

Departure Runways

ID Width Length Bearing (true) Bearing (mag) Surface Threshold Offset Overrun Length
06 148 ft / 45 m 7,201 ft / 2,195 m 56.93° 55.88° Asphalt 656 ft / 200 m 0 ft / 0 m
24 148 ft / 45 m 7,201 ft / 2,195 m 236.95° 235.90° Asphalt 656 ft / 200 m 0 ft / 0 m

EGSH

Details ICAO EGSH (NWI)
Name Norwich
Region United Kingdom
Timezone Europe/London (UTC+0.0)
Stats Elevation 117 ft / 36 m (AMSL)
Location 52.676860° 1.284493°
Runways 2
Magnetic Variation 0.075° W

METAR

EGSH 180120Z AUTO 31007KT 280V350 9999 NCD 05/03 Q1020

Decode

TAF

Not found

Destination Runways

ID Width Length Bearing (true) Bearing (mag) Surface Threshold Offset Overrun Length
09 148 ft / 45 m 6,023 ft / 1,836 m 89.29° 89.37° Asphalt 0 ft / 0 m 0 ft / 0 m
21 141 ft / 43 m 5,148 ft / 1,569 m 216.41° 216.49° Asphalt 0 ft / 0 m 0 ft / 0 m
27 148 ft / 45 m 6,023 ft / 1,836 m 269.31° 269.39° Asphalt 0 ft / 0 m 0 ft / 0 m
3 141 ft / 43 m 5,148 ft / 1,569 m 36.39° 36.47° Asphalt 991 ft / 302 m 0 ft / 0 m

Approach Navaids

Runway Type Ident Frequency Range Bearing (true) Bearing (mag) Slope Elevation
27 Localiser INH 110.90 MHz 18 nm / 33 km 269.24° 269.31° - 117 ft / 36 m (AMSL)
27 Glidescope INH 110.90 MHz 10 nm / 19 km 269.30° 269.38° 3.00° 117 ft / 36 m (AMSL)
27 DME INH 110.90 MHz 18 nm / 33 km - - - 137 ft / 42 m (AMSL)

Popular Alternatives